This is the latest recevied weather packets stored in our database for station/object KO4RMV-3. If no packets are shown the sender has not sent any weather packets the latest 10 day(s).
| Time | Temp. | Humidity | Pressure | Rain* | Wind** | Luminosity | Snow |
|---|---|---|---|---|---|---|---|
| 1777646706 | 15.56° C | 42% | - | 0 mm | - | - | - |
| 1777645806 | 15.56° C | 39% | - | 0 mm | - | - | - |
| 1777644906 | 15° C | 45% | - | 0 mm | - | - | - |
| 1777644006 | 13.89° C | 49% | - | 0 mm | - | - | - |
| 1777643106 | 13.89° C | 50% | - | 0 mm | - | - | - |
| 1777642205 | 12.78° C | 56% | - | 0 mm | - | - | - |
| 1777641305 | 12.22° C | 59% | - | 0 mm | - | - | - |
| 1777640405 | 11.67° C | 66% | - | 0 mm | - | - | - |
| 1777639505 | 11.11° C | 69% | - | 0 mm | - | - | - |
| 1777638605 | 10° C | 73% | - | 0 mm | - | - | - |
| 1777637705 | 8.89° C | 77% | - | 0 mm | - | - | - |
| 1777636805 | 7.78° C | 82% | - | 0 mm | - | - | - |
| 1777635905 | 6.67° C | 85% | - | 0 mm | - | - | - |
| 1777635005 | 6.67° C | 86% | - | 0 mm | - | - | - |
| 1777634106 | 5.56° C | 87% | - | 0 mm | - | - | - |
| 1777633206 | 5° C | 87% | - | 0 mm | - | - | - |
| 1777632306 | 5° C | 87% | - | 0 mm | - | - | - |
| 1777631406 | 5° C | 87% | - | 0 mm | - | - | - |
| 1777630506 | 5° C | 86% | - | 0 mm | - | - | - |
| 1777629606 | 5° C | 85% | - | 0 mm | - | - | - |
| 1777628705 | 5.56° C | 85% | - | 0 mm | - | - | - |
| 1777627806 | 5.56° C | 84% | - | 0 mm | - | - | - |
| 1777626905 | 5.56° C | 83% | - | 0 mm | - | - | - |
| 1777626005 | 6.11° C | 83% | - | 0 mm | - | - | - |
| 1777625105 | 6.11° C | 81% | - | 0 mm | - | - | - |
* Rain latest hour (hover to see other rain measurements)
** Current wind speed in m/s (hover to see current wind gust speed)